createdAt,value
2022-09-04T00:00:14.801Z,23.48
2022-09-04T00:03:35.782Z,23.55
2022-09-04T00:06:49.831Z,23.60
2022-09-04T00:10:09.730Z,23.64
2022-09-04T00:13:22.391Z,23.42
2022-09-04T00:16:29.735Z,23.61
2022-09-04T00:19:38.699Z,23.50
2022-09-04T00:22:52.542Z,23.68
2022-09-04T00:26:04.232Z,23.75
2022-09-04T00:29:16.434Z,23.83
2022-09-04T00:32:37.576Z,23.81
2022-09-04T00:35:45.088Z,23.82
2022-09-04T00:38:54.050Z,23.81
2022-09-04T00:42:11.376Z,23.55
2022-09-04T00:45:30.445Z,23.60
2022-09-04T00:49:00.381Z,23.81
2022-09-04T00:52:17.063Z,23.64
2022-09-04T00:55:39.030Z,23.54
2022-09-04T00:58:58.142Z,23.30
2022-09-04T01:02:09.762Z,23.38
2022-09-04T01:05:25.625Z,23.35
2022-09-04T01:08:41.038Z,23.29
2022-09-04T01:11:56.906Z,23.25
2022-09-04T01:15:14.504Z,23.23
2022-09-04T01:18:28.310Z,22.92
2022-09-04T01:22:00.546Z,23.11
2022-09-04T01:25:20.468Z,23.22
2022-09-04T01:28:33.746Z,23.11
2022-09-04T01:31:46.159Z,23.23
2022-09-04T01:34:59.619Z,23.23
2022-09-04T01:38:16.492Z,23.28
2022-09-04T01:41:25.672Z,23.21
2022-09-04T01:44:31.311Z,23.25
2022-09-04T01:47:44.928Z,23.15
2022-09-04T01:50:53.053Z,23.10
2022-09-04T01:54:11.997Z,23.32
2022-09-04T01:57:33.188Z,23.27
2022-09-04T02:00:47.390Z,23.08
2022-09-04T02:04:01.543Z,23.26
2022-09-04T02:07:15.988Z,23.28
2022-09-04T02:10:31.820Z,23.05
2022-09-04T02:13:45.558Z,22.91
2022-09-04T02:17:08.182Z,22.84
2022-09-04T02:20:23.043Z,23.05
2022-09-04T02:23:36.493Z,23.11
2022-09-04T02:26:47.103Z,22.99
2022-09-04T02:29:55.974Z,22.91
2022-09-04T02:33:11.074Z,22.97
2022-09-04T02:36:23.392Z,22.91
2022-09-04T02:39:47.232Z,22.88
2022-09-04T02:43:03.072Z,22.65
2022-09-04T02:46:13.469Z,22.72
2022-09-04T02:49:31.301Z,22.40
2022-09-04T02:52:59.676Z,22.49
2022-09-04T02:56:20.332Z,22.64
2022-09-04T02:59:36.827Z,22.75
2022-09-04T03:02:46.572Z,22.54
2022-09-04T03:06:08.049Z,22.40
2022-09-04T03:09:17.882Z,22.61
2022-09-04T03:12:31.856Z,22.56
2022-09-04T03:15:42.642Z,22.66
2022-09-04T03:19:03.343Z,22.62
2022-09-04T03:22:15.831Z,22.67
2022-09-04T03:25:54.940Z,22.51
2022-09-04T03:29:10.334Z,22.71
2022-09-04T03:32:22.045Z,22.74
2022-09-04T03:35:36.819Z,22.62
2022-09-04T03:38:51.561Z,22.90
2022-09-04T03:42:05.240Z,22.46
2022-09-04T03:45:21.786Z,22.54
2022-09-04T03:48:35.679Z,22.61
2022-09-04T03:51:57.191Z,22.76
2022-09-04T03:55:26.126Z,22.76
2022-09-04T03:58:39.795Z,22.72
2022-09-04T04:01:51.835Z,22.46
2022-09-04T04:05:29.594Z,22.33
2022-09-04T04:08:45.171Z,22.51
2022-09-04T04:12:13.217Z,22.94
2022-09-04T04:15:32.250Z,22.71
2022-09-04T04:19:01.681Z,23.05
2022-09-04T04:22:24.531Z,22.82
2022-09-04T04:26:00.024Z,22.76
2022-09-04T04:29:30.375Z,22.39
2022-09-04T04:32:51.645Z,22.69
2022-09-04T04:36:02.919Z,22.51
2022-09-04T04:39:30.329Z,22.50
2022-09-04T04:42:43.098Z,22.69
2022-09-04T04:45:58.407Z,22.50
2022-09-04T04:49:34.245Z,22.81
2022-09-04T04:52:49.342Z,22.70
2022-09-04T04:55:58.630Z,22.82
2022-09-04T04:59:20.671Z,22.85
2022-09-04T05:02:30.496Z,22.57
2022-09-04T05:05:59.121Z,22.50
2022-09-04T05:09:10.832Z,22.48
2022-09-04T05:12:26.259Z,22.08
2022-09-04T05:15:52.973Z,22.10
2022-09-04T05:19:08.311Z,22.02
2022-09-04T05:22:21.563Z,22.06
2022-09-04T05:25:34.140Z,22.17
2022-09-04T05:28:47.406Z,22.35
2022-09-04T05:31:57.686Z,22.28
2022-09-04T05:35:10.993Z,22.39
2022-09-04T05:38:21.761Z,22.49
2022-09-04T05:41:39.782Z,22.47
2022-09-04T05:44:58.676Z,22.23
2022-09-04T05:48:14.040Z,22.59
2022-09-04T05:51:56.978Z,22.47
2022-09-04T05:55:25.067Z,22.68
2022-09-04T05:58:50.523Z,22.77
2022-09-04T06:02:10.781Z,22.78
2022-09-04T06:05:28.779Z,22.68
2022-09-04T06:08:53.165Z,22.94
2022-09-04T06:12:18.738Z,22.71
2022-09-04T06:15:38.277Z,23.13
2022-09-04T06:18:58.421Z,23.26
2022-09-04T06:22:31.914Z,23.27
2022-09-04T06:26:05.337Z,23.22
2022-09-04T06:29:30.844Z,23.31
2022-09-04T06:33:10.010Z,23.48
2022-09-04T06:36:40.961Z,23.40
2022-09-04T06:39:59.347Z,23.41
2022-09-04T06:43:16.194Z,23.62
2022-09-04T06:46:26.999Z,23.35
2022-09-04T06:49:42.823Z,23.76
2022-09-04T06:53:04.543Z,23.63
2022-09-04T06:56:28.979Z,23.85
2022-09-04T07:00:01.836Z,23.83
2022-09-04T07:03:29.138Z,24.00
2022-09-04T07:06:48.634Z,24.59
2022-09-04T07:10:01.189Z,24.90
2022-09-04T07:13:27.539Z,25.01
2022-09-04T07:16:44.788Z,25.06
2022-09-04T07:19:59.473Z,25.10
2022-09-04T07:23:23.943Z,26.12
2022-09-04T07:26:35.359Z,26.13
2022-09-04T07:29:42.681Z,25.75
2022-09-04T07:32:54.911Z,25.80
2022-09-04T07:36:06.593Z,25.63
2022-09-04T07:39:20.874Z,26.05
2022-09-04T07:42:33.203Z,26.05
2022-09-04T07:45:39.788Z,26.97
2022-09-04T07:48:50.360Z,26.80
2022-09-04T07:52:00.270Z,26.53
2022-09-04T07:55:31.605Z,27.49
2022-09-04T07:58:58.610Z,27.95
2022-09-04T08:02:29.020Z,27.76
2022-09-04T08:05:38.310Z,27.75
2022-09-04T08:09:17.563Z,27.47
2022-09-04T08:12:42.755Z,28.12
2022-09-04T08:16:06.436Z,28.05
2022-09-04T08:19:25.236Z,27.90
2022-09-04T08:22:39.129Z,28.50
2022-09-04T08:25:56.851Z,28.23
2022-09-04T08:29:32.580Z,29.03
2022-09-04T08:33:05.302Z,28.02
2022-09-04T08:36:19.064Z,28.53
2022-09-04T08:39:35.802Z,28.67
2022-09-04T08:43:12.128Z,28.44
2022-09-04T08:46:49.442Z,29.15
2022-09-04T08:50:27.666Z,29.62
2022-09-04T08:53:55.536Z,29.18
2022-09-04T08:57:23.784Z,28.53
2022-09-04T09:00:37.249Z,28.97
2022-09-04T09:04:22.945Z,28.82
2022-09-04T09:07:54.845Z,28.74
2022-09-04T09:11:25.841Z,27.94
2022-09-04T09:15:01.727Z,27.57
2022-09-04T09:18:22.683Z,28.61
2022-09-04T09:21:35.944Z,28.75
2022-09-04T09:25:12.025Z,29.37
2022-09-04T09:28:56.766Z,28.85
2022-09-04T09:32:33.399Z,28.76
2022-09-04T09:36:22.923Z,29.09
2022-09-04T09:40:13.777Z,29.18
2022-09-04T09:43:52.199Z,28.57
2022-09-04T09:47:38.520Z,28.17
2022-09-04T09:51:03.453Z,27.89
2022-09-04T09:54:34.303Z,27.97
2022-09-04T09:58:11.812Z,27.78
2022-09-04T10:01:34.406Z,27.64
2022-09-04T10:05:04.618Z,28.57
2022-09-04T10:08:37.157Z,28.75
2022-09-04T10:12:07.036Z,29.39
2022-09-04T10:15:47.189Z,29.78
2022-09-04T10:19:23.274Z,29.73
2022-09-04T10:23:07.716Z,29.36
2022-09-04T10:26:44.443Z,30.06
2022-09-04T10:30:05.112Z,30.05
2022-09-04T10:33:33.374Z,30.00
2022-09-04T10:36:48.728Z,30.32
2022-09-04T10:40:26.653Z,29.87
2022-09-04T10:43:46.356Z,29.97
2022-09-04T10:46:59.936Z,30.08
2022-09-04T10:50:24.892Z,30.25
2022-09-04T10:53:52.867Z,30.25
2022-09-04T10:57:08.420Z,30.22
2022-09-04T11:00:15.324Z,29.75
2022-09-04T11:03:47.534Z,29.83
2022-09-04T11:07:12.468Z,30.84
2022-09-04T11:10:42.232Z,30.95
2022-09-04T11:14:08.919Z,30.42
2022-09-04T11:17:57.355Z,30.61
2022-09-04T11:21:37.484Z,29.87
2022-09-04T11:25:19.190Z,30.96
2022-09-04T11:28:52.001Z,31.02
2022-09-04T11:32:18.863Z,31.33
2022-09-04T11:36:00.334Z,31.33
2022-09-04T11:39:40.015Z,31.32
2022-09-04T11:43:03.644Z,31.50
2022-09-04T11:46:32.244Z,31.59
2022-09-04T11:49:59.115Z,31.59
2022-09-04T11:53:27.804Z,31.08
2022-09-04T11:56:49.687Z,31.44
2022-09-04T12:00:09.484Z,31.11
2022-09-04T12:03:41.247Z,30.43
2022-09-04T12:07:02.540Z,30.24
2022-09-04T12:10:24.073Z,30.23
2022-09-04T12:13:57.636Z,30.46
2022-09-04T12:17:24.124Z,30.46
2022-09-04T12:20:45.764Z,30.65
2022-09-04T12:24:26.031Z,30.37
2022-09-04T12:28:07.768Z,30.24
2022-09-04T12:31:35.296Z,29.89
2022-09-04T12:35:10.590Z,30.16
2022-09-04T12:38:33.833Z,30.40
2022-09-04T12:41:50.085Z,30.62
2022-09-04T12:45:05.351Z,31.15
2022-09-04T12:48:15.407Z,30.27
2022-09-04T12:51:24.734Z,30.23
2022-09-04T12:54:34.674Z,30.25
2022-09-04T12:57:48.956Z,30.42
2022-09-04T13:01:08.592Z,30.00
2022-09-04T13:04:22.251Z,29.44
2022-09-04T13:07:45.991Z,29.18
2022-09-04T13:11:01.615Z,29.33
2022-09-04T13:14:35.148Z,29.75
2022-09-04T13:17:51.289Z,30.05
2022-09-04T13:21:02.338Z,30.30
2022-09-04T13:24:19.627Z,30.39
2022-09-04T13:27:39.357Z,30.33
2022-09-04T13:30:52.884Z,29.92
2022-09-04T13:34:07.625Z,30.29
2022-09-04T13:37:23.953Z,30.14
2022-09-04T13:40:39.215Z,29.97
2022-09-04T13:44:01.082Z,29.98
2022-09-04T13:47:10.776Z,30.03
2022-09-04T13:50:25.158Z,29.75
2022-09-04T13:53:39.479Z,29.31
2022-09-04T13:56:50.967Z,28.90
2022-09-04T13:59:59.360Z,28.84
2022-09-04T14:03:11.689Z,29.05
2022-09-04T14:06:18.010Z,29.22
2022-09-04T14:09:21.491Z,29.37
2022-09-04T14:12:39.742Z,29.72
2022-09-04T14:16:04.034Z,29.62
2022-09-04T14:19:42.644Z,30.05
2022-09-04T14:22:55.143Z,29.76
2022-09-04T14:26:04.129Z,29.57
2022-09-04T14:29:19.471Z,29.94
2022-09-04T14:32:32.569Z,29.94
2022-09-04T14:35:47.062Z,29.62
2022-09-04T14:39:23.791Z,29.52
2022-09-04T14:42:44.244Z,28.96
2022-09-04T14:46:15.765Z,28.69
2022-09-04T14:49:24.038Z,28.56
2022-09-04T14:52:35.505Z,28.84
2022-09-04T14:56:03.299Z,28.72
2022-09-04T14:59:18.144Z,28.96
2022-09-04T15:02:29.497Z,28.98
2022-09-04T15:05:37.145Z,28.88
2022-09-04T15:08:42.015Z,29.00
2022-09-04T15:11:46.350Z,28.94
2022-09-04T15:14:52.455Z,28.68
2022-09-04T15:18:01.919Z,28.52
2022-09-04T15:21:12.454Z,28.56
2022-09-04T15:24:26.621Z,28.28
2022-09-04T15:27:40.841Z,28.22
2022-09-04T15:30:48.861Z,28.09
2022-09-04T15:34:01.800Z,28.18
2022-09-04T15:37:16.385Z,28.06
2022-09-04T15:40:30.289Z,28.23
2022-09-04T15:43:38.989Z,28.24
2022-09-04T15:46:47.940Z,28.03
2022-09-04T15:49:55.428Z,28.23
2022-09-04T15:53:13.373Z,28.00
2022-09-04T15:56:35.556Z,27.84
2022-09-04T15:59:49.145Z,27.81
2022-09-04T16:02:59.470Z,27.57
2022-09-04T16:06:07.108Z,27.55
2022-09-04T16:09:18.705Z,27.09
2022-09-04T16:12:28.084Z,27.24
2022-09-04T16:15:34.877Z,26.95
2022-09-04T16:18:52.571Z,26.96
2022-09-04T16:22:03.995Z,26.86
2022-09-04T16:25:11.931Z,26.93
2022-09-04T16:28:25.414Z,27.06
2022-09-04T16:31:32.172Z,26.98
2022-09-04T16:34:40.040Z,26.98
2022-09-04T16:37:50.955Z,27.04
2022-09-04T16:40:58.735Z,26.66
2022-09-04T16:44:25.825Z,26.58
2022-09-04T16:47:38.498Z,26.41
2022-09-04T16:50:51.887Z,26.45
2022-09-04T16:54:05.436Z,26.53
2022-09-04T16:57:13.943Z,26.46
2022-09-04T17:00:21.326Z,26.25
2022-09-04T17:03:26.485Z,26.18
2022-09-04T17:06:34.627Z,26.24
2022-09-04T17:10:01.817Z,26.18
2022-09-04T17:13:13.086Z,26.06
2022-09-04T17:16:21.824Z,26.08
2022-09-04T17:19:26.593Z,25.86
2022-09-04T17:28:56.326Z,25.65
2022-09-04T17:29:12.869Z,25.62
2022-09-04T17:29:44.363Z,25.52
2022-09-04T17:36:49.293Z,25.47
2022-09-04T17:40:40.548Z,25.27
2022-09-04T17:40:48.578Z,25.09
2022-09-04T17:43:31.427Z,25.17
2022-09-04T17:46:37.667Z,25.21
2022-09-04T17:49:48.044Z,25.20
2022-09-04T17:53:03.058Z,25.23
2022-09-04T17:56:15.456Z,25.05
2022-09-04T17:59:26.623Z,24.89
2022-09-04T18:02:39.747Z,25.03
2022-09-04T18:05:53.134Z,25.09
2022-09-04T18:09:01.809Z,24.92
2022-09-04T18:12:13.320Z,24.98
2022-09-04T18:15:33.634Z,24.90
2022-09-04T18:18:45.398Z,24.98
2022-09-04T18:22:22.091Z,24.97
2022-09-04T18:25:21.119Z,25.02
2022-09-04T18:28:33.826Z,25.04
2022-09-04T18:37:07.919Z,25.05
2022-09-04T18:37:09.629Z,25.18
2022-09-04T18:38:41.914Z,25.14
2022-09-04T18:50:25.240Z,24.70
2022-09-04T18:50:43.190Z,24.45
2022-09-04T18:50:51.230Z,24.71
2022-09-04T18:52:50.401Z,24.67
2022-09-04T18:55:58.920Z,24.68
2022-09-04T18:59:07.191Z,24.58
2022-09-04T19:02:17.322Z,24.14
2022-09-04T19:05:22.316Z,23.65
2022-09-04T19:08:34.194Z,23.89
2022-09-04T19:11:47.607Z,24.02
2022-09-04T19:14:57.098Z,23.81
2022-09-04T19:18:06.215Z,24.10
2022-09-04T19:21:27.007Z,24.05
2022-09-04T19:24:37.462Z,24.19
2022-09-04T19:27:46.427Z,23.97
2022-09-04T19:30:56.034Z,23.90
2022-09-04T19:34:05.274Z,23.84
2022-09-04T19:38:33.920Z,23.56
2022-09-04T19:46:01.500Z,23.89
2022-09-04T19:46:05.542Z,23.79
2022-09-04T19:47:54.373Z,24.06
2022-09-04T19:53:18.246Z,23.81
2022-09-04T19:54:35.229Z,23.92
2022-09-04T19:57:43.803Z,23.70
2022-09-04T20:00:56.236Z,23.65
2022-09-04T20:04:05.848Z,23.88
2022-09-04T20:07:14.269Z,23.59
2022-09-04T20:10:21.556Z,23.65
2022-09-04T20:13:30.498Z,23.72
2022-09-04T20:16:44.332Z,23.37
2022-09-04T20:19:57.448Z,23.20
2022-09-04T20:23:34.644Z,23.42
2022-09-04T20:26:34.564Z,23.30
2022-09-04T20:29:43.876Z,23.30
2022-09-04T20:33:05.095Z,23.43
2022-09-04T20:36:13.048Z,23.36
2022-09-04T20:39:24.832Z,23.31
2022-09-04T20:42:32.781Z,23.32
2022-09-04T20:51:22.698Z,23.14
2022-09-04T20:52:53.854Z,23.27
2022-09-04T20:53:09.621Z,23.21
2022-09-04T20:59:07.568Z,23.34
2022-09-04T21:03:19.263Z,23.31
2022-09-04T21:03:50.226Z,23.12
2022-09-04T21:07:07.186Z,23.25
2022-09-04T21:10:18.731Z,23.12
2022-09-04T21:13:31.046Z,22.99
2022-09-04T21:16:41.937Z,23.04
2022-09-04T21:20:17.290Z,23.13
2022-09-04T21:23:56.559Z,23.09
2022-09-04T21:27:33.805Z,22.98
2022-09-04T21:30:51.244Z,22.79
2022-09-04T21:34:11.957Z,22.97
2022-09-04T21:37:22.830Z,22.73
2022-09-04T21:41:05.204Z,22.88
2022-09-04T21:44:53.158Z,22.60
2022-09-04T21:48:37.829Z,22.57
2022-09-04T21:51:58.364Z,22.50
2022-09-04T21:57:17.673Z,22.57
2022-09-04T22:02:36.670Z,22.94
2022-09-04T22:02:54.379Z,22.53
2022-09-04T22:06:11.328Z,22.78
2022-09-04T22:13:34.974Z,22.66
2022-09-04T22:13:41.778Z,22.61
2022-09-04T22:16:43.622Z,22.42
2022-09-04T22:20:20.783Z,22.32
2022-09-04T22:23:53.748Z,22.07
2022-09-04T22:27:26.120Z,22.22
2022-09-04T22:30:38.801Z,22.39
2022-09-04T22:34:19.924Z,22.32
2022-09-04T22:37:59.459Z,22.69
2022-09-04T22:41:19.374Z,22.69
2022-09-04T22:44:39.424Z,22.72
2022-09-04T22:48:00.362Z,22.32
2022-09-04T22:51:18.972Z,22.37
2022-09-04T22:54:41.257Z,22.35
2022-09-04T22:58:09.453Z,22.58
2022-09-04T23:01:40.694Z,22.67
2022-09-04T23:05:00.363Z,22.39
2022-09-04T23:13:22.079Z,22.46
2022-09-04T23:14:00.194Z,22.51
2022-09-04T23:15:37.237Z,22.44
2022-09-04T23:26:31.252Z,22.19
2022-09-04T23:26:34.413Z,22.03
2022-09-04T23:26:43.575Z,22.05
2022-09-04T23:30:12.508Z,22.43
2022-09-04T23:33:38.532Z,22.41
2022-09-04T23:37:19.459Z,22.64
2022-09-04T23:40:44.722Z,22.47
2022-09-04T23:44:32.577Z,22.39
2022-09-04T23:47:56.049Z,22.33
2022-09-04T23:51:05.561Z,22.24
2022-09-04T23:54:36.477Z,22.19
2022-09-04T23:57:46.385Z,22.06
